This is the latest recevied weather packets stored in our database for station/object DL7MAP-13. If no packets are shown the sender has not sent any weather packets the latest 10 day(s).
| Time | Temp. | Humidity | Pressure | Rain* | Wind** | Luminosity | Snow |
|---|---|---|---|---|---|---|---|
| 1777665487 | 16.11° C | 49% | 1019.8 hPa | - | - | - | - |
| 1777664587 | 16.11° C | 50% | 1020.1 hPa | - | - | - | - |
| 1777663687 | 17.78° C | 48% | 1020.1 hPa | - | - | - | - |
| 1777662787 | 17.78° C | 46% | 1019.6 hPa | - | - | - | - |
| 1777661887 | 18.33° C | 42% | 1019.9 hPa | - | - | - | - |
| 1777660987 | 20° C | 38% | 1019.9 hPa | - | - | - | - |
| 1777660087 | 21.67° C | 35% | 1019.7 hPa | - | - | - | - |
| 1777659187 | 22.78° C | 32% | 1019.3 hPa | - | - | - | - |
| 1777658287 | 23.33° C | 31% | 1019.1 hPa | - | - | - | - |
| 1777657387 | 23.89° C | 30% | 1019.2 hPa | - | - | - | - |
| 1777656487 | 24.44° C | 28% | 1020.2 hPa | - | - | - | - |
| 1777655586 | 24.44° C | 28% | 1020.3 hPa | - | - | - | - |
| 1777654687 | 25.56° C | 27% | 1019.7 hPa | - | - | - | - |
| 1777653787 | 25.56° C | 28% | 1020.6 hPa | - | - | - | - |
| 1777652887 | 25.56° C | 27% | 1020.9 hPa | - | - | - | - |
| 1777651987 | 24.44° C | 28% | 1021.5 hPa | - | - | - | - |
| 1777651086 | 24.44° C | 27% | 1021.3 hPa | - | - | - | - |
| 1777650187 | 25° C | 27% | 1020.4 hPa | - | - | - | - |
| 1777649287 | 25.56° C | 26% | 1020.8 hPa | - | - | - | - |
| 1777648387 | 26.11° C | 25% | 1020.7 hPa | - | - | - | - |
| 1777647487 | 25.56° C | 25% | 1021.6 hPa | - | - | - | - |
| 1777646587 | 25.56° C | 26% | 1020.5 hPa | - | - | - | - |
| 1777645687 | 26.67° C | 25% | 1021.2 hPa | - | - | - | - |
| 1777644787 | 26.11° C | 25% | 1021.6 hPa | - | - | - | - |
| 1777643886 | 25.56° C | 25% | 1022.1 hPa | - | - | - | - |
* Rain since midnight (hover to see other rain measurements)
** Current wind speed in m/s (hover to see current wind gust speed)